Hlavní strana
METAR-TAF:

METAR-TAF

Letiště :

Mezinárodní letiště Charbin Tchaj-pching

Charbin, Čína

zeměpisná šířka: 45-45N, zeměpisná délka: 126-46E, výška: 143 m

Aktuální stav počasí

Zpráva byla vytvořena před 1 hodinou a 9 minutami, v 18:00 UTC
Severoseverovýchodní vítr 4 kt
Teplota 14°C
Vlhkost vzduchu 88%
Tlak 1019 hPa
Viditelnost 10 km a více
Žádná oblačnost pod 1500 m, nevyskytují se cumulonimby.

METAR: ZYHB 151800Z 03002MPS CAVOK 14/12 Q1019 NOSIG

Čas: 03:09 (19:09 UTC)

Předpověď počasí

Zpráva byla vytvořena před 6 hodinami a 0 minutami, v 13:09 UTC
Předpověď platná od 15 v 18 UTC do 16 v 18 UTC
Východoseverovýchodní vítr 8 kt s nárazy do 19 kt
Viditelnost: 6000 m
Polojasno ve výšce 3000 ft

TAF: ZYHB 151309Z 1518/1618 07004G10MPS 6000 SCT030 TX24/1606Z TN13/1521Z

Stav a předpovědi počasí z více než 4 000 letišť (zprávy METAR a TAF).

Červené a žluté tečky na mapě představují dostupné meteorologické stanice.

Když kurzor umístíte na tečku, zobrazí se název stanice.

Pak kliknutím zobrazíte stav a předpověď počasí.

Chcete-li změnit mapu, kliknutím na zelené tlačítko se znaménkem +mapu přiblížíte, kliknutím na zelené tlačítko se znaménkem – mapu oddálíte a kliknutím na zelené šipky přejdete na sousední mapy.


METAR-TAF: